Port Alsworth, AK (99653)

4:41 AM AKDT on August 18, 2017 (GMT -0800)
Iliamna | | Change Station

Elev 184 ft 59.75 °N, 154.91 °W | Updated 48 minutes ago

Overcast
Overcast
49 °F
Feels Like 49 °F
N
4
Wind Variable Wind from ENE

Today
High -- | Low -- °F
--% Chance of Precip.
Yesterday
High -- | Low -- °F
Precip. -- in
Pressure 29.65 in
Visibility 7.0 miles
Clouds Few 4700 ft
Overcast 5500 ft
Dew Point 47 °F
Humidity 93%
Rainfall 0.04 in
Snow Depth Not available.
6:39 AM 10:01 PM
Waning Crescent, 14% visible
METAR PAIL 181153Z AUTO 06003KT 7SM -RA FEW047 OVC055 09/08 A2964 RMK AO2 RAB24 SLP039 P0002 60004 70027 T00940083 10100 20089 53001 TSNO
Pressure 29.65 in
Visibility 7.0 miles
Clouds Few 4700 ft
Overcast 5500 ft
Dew Point 47 °F
Humidity 93%
Rainfall 0.04 in
Snow Depth Not available.
6:39 AM 10:01 PM
Waning Crescent, 14% visible
METAR PAIL 181153Z AUTO 06003KT 7SM -RA FEW047 OVC055 09/08 A2964 RMK AO2 RAB24 SLP039 P0002 60004 70027 T00940083 10100 20089 53001 TSNO

Get Severe Weather Alerts

Thanks for signing up!

Be on the lookout for a verification email in your inbox.

You'll start receiving the daily forecast at 6 AM.

×

10-Day Weather Forecast

Almanac

Astronomy

Aug. 18, 2017 Rise Set
Actual Time
Civil Twilight
Nautical Twilight
Astronomical Twilight
Moon
Length of Visible Light
Length of Day
Tomorrow will be .
, % of the Moon is Illuminated

Today's Extremes

State Highs State Lows

Community

WunderPhotos

Category 6

Welcome to Category 6. This is the collective home for Weather Underground's featured writeups by Dr. Jeff Masters (right), Bob Henson (left), Chris Burt, and other regular contributors.

Nearby

Air Quality

  Air Quality AQ Index Pollutant
Not available.

Snow Depth

Station Depth Elevation

Earthquake Activity

City Distance Mag. Time & Date
Minimum magnitude displayed is 2.5.

Coastal Water Temperatures

Place Temperature

Stations

Nearby Weather Stations

Station Location Temp. Windchill Dew Point Humidity Wind Precip. Elev Updated Type
                   

Watches & Warnings

There are currently no watches in effect.